sensor_id;sensor_type;location;lat;lon;timestamp;P1;durP1;ratioP1;P2;durP2;ratioP2
12407;SDS011;6268;48.188;17.134;2023-03-14T00:01:40;7.40;;;5.07;;
12407;SDS011;6268;48.188;17.134;2023-03-14T00:04:11;5.60;;;4.60;;
12407;SDS011;6268;48.188;17.134;2023-03-14T00:06:40;5.20;;;4.68;;
12407;SDS011;6268;48.188;17.134;2023-03-14T00:09:09;6.28;;;5.28;;
12407;SDS011;6268;48.188;17.134;2023-03-14T00:11:38;5.18;;;4.78;;
12407;SDS011;6268;48.188;17.134;2023-03-14T00:14:08;7.10;;;4.93;;
12407;SDS011;6268;48.188;17.134;2023-03-14T00:16:38;5.65;;;5.15;;
12407;SDS011;6268;48.188;17.134;2023-03-14T00:19:07;5.70;;;5.30;;
12407;SDS011;6268;48.188;17.134;2023-03-14T00:21:36;5.28;;;4.78;;
12407;SDS011;6268;48.188;17.134;2023-03-14T00:24:05;5.43;;;4.88;;
12407;SDS011;6268;48.188;17.134;2023-03-14T00:26:35;7.43;;;5.07;;
12407;SDS011;6268;48.188;17.134;2023-03-14T00:29:04;5.38;;;4.90;;
12407;SDS011;6268;48.188;17.134;2023-03-14T00:31:35;4.88;;;4.45;;
12407;SDS011;6268;48.188;17.134;2023-03-14T00:34:06;4.65;;;4.35;;
12407;SDS011;6268;48.188;17.134;2023-03-14T00:36:35;5.13;;;4.72;;
12407;SDS011;6268;48.188;17.134;2023-03-14T00:39:04;6.03;;;4.60;;
12407;SDS011;6268;48.188;17.134;2023-03-14T00:41:32;5.35;;;4.90;;
12407;SDS011;6268;48.188;17.134;2023-03-14T00:44:01;6.00;;;4.47;;
12407;SDS011;6268;48.188;17.134;2023-03-14T00:46:31;4.80;;;4.40;;
12407;SDS011;6268;48.188;17.134;2023-03-14T00:49:01;6.20;;;4.63;;
12407;SDS011;6268;48.188;17.134;2023-03-14T00:51:30;4.68;;;4.30;;
12407;SDS011;6268;48.188;17.134;2023-03-14T00:53:59;5.22;;;4.82;;
12407;SDS011;6268;48.188;17.134;2023-03-14T00:56:28;5.75;;;4.63;;
12407;SDS011;6268;48.188;17.134;2023-03-14T00:58:58;5.00;;;4.60;;
12407;SDS011;6268;48.188;17.134;2023-03-14T01:01:27;5.20;;;4.80;;
12407;SDS011;6268;48.188;17.134;2023-03-14T01:03:56;4.45;;;4.05;;
12407;SDS011;6268;48.188;17.134;2023-03-14T01:06:27;5.93;;;4.65;;
12407;SDS011;6268;48.188;17.134;2023-03-14T01:08:57;5.28;;;4.63;;
12407;SDS011;6268;48.188;17.134;2023-03-14T01:11:28;5.15;;;4.68;;
12407;SDS011;6268;48.188;17.134;2023-03-14T01:13:59;4.88;;;4.47;;
12407;SDS011;6268;48.188;17.134;2023-03-14T01:16:30;5.75;;;5.05;;
12407;SDS011;6268;48.188;17.134;2023-03-14T01:19:02;5.47;;;4.97;;
12407;SDS011;6268;48.188;17.134;2023-03-14T01:21:34;4.87;;;4.47;;
12407;SDS011;6268;48.188;17.134;2023-03-14T01:24:04;4.53;;;4.13;;
12407;SDS011;6268;48.188;17.134;2023-03-14T01:26:34;4.88;;;4.30;;
12407;SDS011;6268;48.188;17.134;2023-03-14T01:29:03;5.27;;;4.77;;
12407;SDS011;6268;48.188;17.134;2023-03-14T01:31:32;5.03;;;4.63;;
12407;SDS011;6268;48.188;17.134;2023-03-14T01:34:02;5.22;;;4.63;;
12407;SDS011;6268;48.188;17.134;2023-03-14T01:36:32;5.25;;;4.80;;
12407;SDS011;6268;48.188;17.134;2023-03-14T01:42:26;4.60;;;4.20;;
12407;SDS011;6268;48.188;17.134;2023-03-14T01:44:55;4.70;;;4.28;;
12407;SDS011;6268;48.188;17.134;2023-03-14T01:47:27;4.20;;;3.90;;
12407;SDS011;6268;48.188;17.134;2023-03-14T01:49:56;4.60;;;4.20;;
12407;SDS011;6268;48.188;17.134;2023-03-14T01:52:34;5.25;;;4.75;;
12407;SDS011;6268;48.188;17.134;2023-03-14T01:55:09;5.07;;;4.50;;
12407;SDS011;6268;48.188;17.134;2023-03-14T01:57:42;5.22;;;4.72;;
12407;SDS011;6268;48.188;17.134;2023-03-14T02:04:37;5.32;;;4.40;;
12407;SDS011;6268;48.188;17.134;2023-03-14T02:07:09;4.30;;;4.00;;
12407;SDS011;6268;48.188;17.134;2023-03-14T02:09:44;4.65;;;4.18;;
12407;SDS011;6268;48.188;17.134;2023-03-14T02:12:16;5.80;;;4.60;;
12407;SDS011;6268;48.188;17.134;2023-03-14T02:14:46;4.72;;;4.32;;
12407;SDS011;6268;48.188;17.134;2023-03-14T02:17:16;6.07;;;4.23;;
12407;SDS011;6268;48.188;17.134;2023-03-14T02:19:56;4.15;;;3.65;;
12407;SDS011;6268;48.188;17.134;2023-03-14T02:22:50;4.80;;;4.40;;
12407;SDS011;6268;48.188;17.134;2023-03-14T02:25:22;4.93;;;4.53;;
12407;SDS011;6268;48.188;17.134;2023-03-14T02:28:05;4.90;;;4.50;;
12407;SDS011;6268;48.188;17.134;2023-03-14T02:30:34;6.50;;;4.68;;
12407;SDS011;6268;48.188;17.134;2023-03-14T02:33:03;4.63;;;4.03;;
12407;SDS011;6268;48.188;17.134;2023-03-14T02:35:35;5.28;;;4.55;;
12407;SDS011;6268;48.188;17.134;2023-03-14T02:38:10;5.45;;;4.95;;
12407;SDS011;6268;48.188;17.134;2023-03-14T02:40:48;6.60;;;4.55;;
12407;SDS011;6268;48.188;17.134;2023-03-14T02:43:19;5.63;;;4.72;;
12407;SDS011;6268;48.188;17.134;2023-03-14T02:45:48;6.15;;;5.00;;
12407;SDS011;6268;48.188;17.134;2023-03-14T02:48:20;6.65;;;4.65;;
12407;SDS011;6268;48.188;17.134;2023-03-14T02:50:54;5.53;;;4.63;;
12407;SDS011;6268;48.188;17.134;2023-03-14T02:53:27;4.13;;;3.72;;
12407;SDS011;6268;48.188;17.134;2023-03-14T02:55:58;6.32;;;3.95;;
12407;SDS011;6268;48.188;17.134;2023-03-14T02:58:29;5.20;;;4.57;;
12407;SDS011;6268;48.188;17.134;2023-03-14T03:00:58;4.38;;;3.97;;
12407;SDS011;6268;48.188;17.134;2023-03-14T03:03:27;4.20;;;3.80;;
12407;SDS011;6268;48.188;17.134;2023-03-14T03:05:56;4.78;;;4.38;;
12407;SDS011;6268;48.188;17.134;2023-03-14T03:08:26;5.57;;;4.05;;
12407;SDS011;6268;48.188;17.134;2023-03-14T03:10:57;5.60;;;3.57;;
12407;SDS011;6268;48.188;17.134;2023-03-14T03:13:26;4.70;;;3.95;;
12407;SDS011;6268;48.188;17.134;2023-03-14T03:15:57;4.30;;;3.90;;
12407;SDS011;6268;48.188;17.134;2023-03-14T03:18:26;4.78;;;4.22;;
12407;SDS011;6268;48.188;17.134;2023-03-14T03:20:55;4.25;;;3.90;;
12407;SDS011;6268;48.188;17.134;2023-03-14T03:23:28;4.00;;;3.70;;
12407;SDS011;6268;48.188;17.134;2023-03-14T03:25:57;4.90;;;4.40;;
12407;SDS011;6268;48.188;17.134;2023-03-14T03:28:26;4.05;;;3.70;;
12407;SDS011;6268;48.188;17.134;2023-03-14T03:30:56;5.00;;;4.00;;
12407;SDS011;6268;48.188;17.134;2023-03-14T03:37:26;6.88;;;4.35;;
12407;SDS011;6268;48.188;17.134;2023-03-14T03:39:57;4.60;;;4.18;;
12407;SDS011;6268;48.188;17.134;2023-03-14T03:42:27;4.28;;;3.97;;
12407;SDS011;6268;48.188;17.134;2023-03-14T03:44:56;4.85;;;4.38;;
12407;SDS011;6268;48.188;17.134;2023-03-14T03:47:26;4.75;;;4.20;;
12407;SDS011;6268;48.188;17.134;2023-03-14T03:49:56;4.63;;;3.97;;
12407;SDS011;6268;48.188;17.134;2023-03-14T03:52:25;4.30;;;3.90;;
12407;SDS011;6268;48.188;17.134;2023-03-14T03:54:53;4.97;;;3.78;;
12407;SDS011;6268;48.188;17.134;2023-03-14T03:57:23;4.63;;;4.10;;
12407;SDS011;6268;48.188;17.134;2023-03-14T03:59:52;4.32;;;3.92;;
12407;SDS011;6268;48.188;17.134;2023-03-14T04:02:20;6.05;;;4.80;;
12407;SDS011;6268;48.188;17.134;2023-03-14T04:04:51;4.43;;;3.95;;
12407;SDS011;6268;48.188;17.134;2023-03-14T04:07:20;4.80;;;4.40;;
12407;SDS011;6268;48.188;17.134;2023-03-14T04:09:49;5.15;;;3.92;;
12407;SDS011;6268;48.188;17.134;2023-03-14T04:12:18;6.88;;;4.10;;
12407;SDS011;6268;48.188;17.134;2023-03-14T04:14:47;4.55;;;4.15;;
12407;SDS011;6268;48.188;17.134;2023-03-14T04:17:16;4.70;;;3.72;;
12407;SDS011;6268;48.188;17.134;2023-03-14T04:19:47;4.43;;;4.03;;
12407;SDS011;6268;48.188;17.134;2023-03-14T04:22:19;3.75;;;3.45;;
12407;SDS011;6268;48.188;17.134;2023-03-14T04:24:48;3.97;;;3.58;;
12407;SDS011;6268;48.188;17.134;2023-03-14T04:31:02;4.55;;;3.88;;
12407;SDS011;6268;48.188;17.134;2023-03-14T04:33:35;4.03;;;3.72;;
12407;SDS011;6268;48.188;17.134;2023-03-14T04:36:05;4.20;;;3.65;;
12407;SDS011;6268;48.188;17.134;2023-03-14T04:38:40;3.50;;;3.20;;
12407;SDS011;6268;48.188;17.134;2023-03-14T04:41:09;4.68;;;3.60;;
12407;SDS011;6268;48.188;17.134;2023-03-14T04:43:38;3.92;;;3.58;;
12407;SDS011;6268;48.188;17.134;2023-03-14T04:46:07;4.40;;;3.55;;
12407;SDS011;6268;48.188;17.134;2023-03-14T04:48:36;5.55;;;3.60;;
12407;SDS011;6268;48.188;17.134;2023-03-14T04:51:05;8.13;;;4.22;;
12407;SDS011;6268;48.188;17.134;2023-03-14T04:53:34;5.45;;;4.30;;
12407;SDS011;6268;48.188;17.134;2023-03-14T04:56:05;4.82;;;4.32;;
12407;SDS011;6268;48.188;17.134;2023-03-14T04:58:35;4.93;;;4.38;;
12407;SDS011;6268;48.188;17.134;2023-03-14T05:01:04;9.23;;;6.25;;
12407;SDS011;6268;48.188;17.134;2023-03-14T05:03:35;20.55;;;15.98;;
12407;SDS011;6268;48.188;17.134;2023-03-14T05:06:04;6.60;;;5.47;;
12407;SDS011;6268;48.188;17.134;2023-03-14T05:08:33;6.78;;;4.28;;
12407;SDS011;6268;48.188;17.134;2023-03-14T05:11:03;8.25;;;6.03;;
12407;SDS011;6268;48.188;17.134;2023-03-14T05:13:33;5.35;;;4.90;;
12407;SDS011;6268;48.188;17.134;2023-03-14T05:16:06;4.18;;;3.65;;
12407;SDS011;6268;48.188;17.134;2023-03-14T05:18:37;5.63;;;4.10;;
12407;SDS011;6268;48.188;17.134;2023-03-14T05:21:06;3.97;;;3.67;;
12407;SDS011;6268;48.188;17.134;2023-03-14T05:23:35;6.00;;;4.35;;
12407;SDS011;6268;48.188;17.134;2023-03-14T05:26:05;6.75;;;4.50;;
12407;SDS011;6268;48.188;17.134;2023-03-14T05:28:34;6.20;;;4.13;;
12407;SDS011;6268;48.188;17.134;2023-03-14T05:31:05;5.10;;;4.30;;
12407;SDS011;6268;48.188;17.134;2023-03-14T05:33:35;5.13;;;3.95;;
12407;SDS011;6268;48.188;17.134;2023-03-14T05:36:04;7.53;;;4.30;;
12407;SDS011;6268;48.188;17.134;2023-03-14T05:38:34;5.13;;;4.63;;
12407;SDS011;6268;48.188;17.134;2023-03-14T05:41:03;5.95;;;4.80;;
12407;SDS011;6268;48.188;17.134;2023-03-14T05:43:34;7.15;;;5.10;;
12407;SDS011;6268;48.188;17.134;2023-03-14T05:46:03;5.75;;;4.70;;
12407;SDS011;6268;48.188;17.134;2023-03-14T05:48:32;9.60;;;7.00;;
12407;SDS011;6268;48.188;17.134;2023-03-14T05:51:01;6.63;;;5.82;;
12407;SDS011;6268;48.188;17.134;2023-03-14T05:53:30;7.90;;;7.10;;
12407;SDS011;6268;48.188;17.134;2023-03-14T05:55:58;7.30;;;6.60;;
12407;SDS011;6268;48.188;17.134;2023-03-14T05:58:29;11.60;;;7.72;;
12407;SDS011;6268;48.188;17.134;2023-03-14T06:00:57;7.18;;;6.40;;
12407;SDS011;6268;48.188;17.134;2023-03-14T06:03:30;5.80;;;5.18;;
12407;SDS011;6268;48.188;17.134;2023-03-14T06:05:59;8.63;;;7.30;;
12407;SDS011;6268;48.188;17.134;2023-03-14T06:08:28;9.90;;;8.73;;
12407;SDS011;6268;48.188;17.134;2023-03-14T06:10:57;7.68;;;7.00;;
12407;SDS011;6268;48.188;17.134;2023-03-14T06:13:26;10.40;;;7.93;;
12407;SDS011;6268;48.188;17.134;2023-03-14T06:15:56;8.70;;;7.83;;
12407;SDS011;6268;48.188;17.134;2023-03-14T06:18:25;9.13;;;8.33;;
12407;SDS011;6268;48.188;17.134;2023-03-14T06:20:54;7.10;;;6.40;;
12407;SDS011;6268;48.188;17.134;2023-03-14T06:23:23;8.25;;;7.20;;
12407;SDS011;6268;48.188;17.134;2023-03-14T06:25:52;9.35;;;7.78;;
12407;SDS011;6268;48.188;17.134;2023-03-14T06:28:21;9.13;;;7.18;;
12407;SDS011;6268;48.188;17.134;2023-03-14T06:30:51;11.80;;;8.88;;
12407;SDS011;6268;48.188;17.134;2023-03-14T06:33:22;10.10;;;8.38;;
12407;SDS011;6268;48.188;17.134;2023-03-14T06:35:50;10.35;;;7.22;;
12407;SDS011;6268;48.188;17.134;2023-03-14T06:38:19;8.77;;;7.57;;
12407;SDS011;6268;48.188;17.134;2023-03-14T06:40:48;9.15;;;6.95;;
12407;SDS011;6268;48.188;17.134;2023-03-14T06:43:17;7.57;;;6.90;;
12407;SDS011;6268;48.188;17.134;2023-03-14T06:45:46;7.03;;;6.40;;
12407;SDS011;6268;48.188;17.134;2023-03-14T06:48:15;6.97;;;5.68;;
12407;SDS011;6268;48.188;17.134;2023-03-14T06:50:46;9.23;;;7.75;;
12407;SDS011;6268;48.188;17.134;2023-03-14T06:53:16;12.23;;;8.55;;
12407;SDS011;6268;48.188;17.134;2023-03-14T06:55:45;13.45;;;9.65;;
12407;SDS011;6268;48.188;17.134;2023-03-14T06:58:14;13.50;;;9.63;;
12407;SDS011;6268;48.188;17.134;2023-03-14T07:00:43;11.98;;;9.23;;
12407;SDS011;6268;48.188;17.134;2023-03-14T07:03:13;10.15;;;9.10;;
12407;SDS011;6268;48.188;17.134;2023-03-14T07:05:43;9.50;;;8.45;;
12407;SDS011;6268;48.188;17.134;2023-03-14T07:08:13;11.65;;;9.27;;
12407;SDS011;6268;48.188;17.134;2023-03-14T07:10:42;10.95;;;8.98;;
12407;SDS011;6268;48.188;17.134;2023-03-14T07:13:10;14.00;;;8.73;;
12407;SDS011;6268;48.188;17.134;2023-03-14T07:15:39;12.40;;;8.95;;
12407;SDS011;6268;48.188;17.134;2023-03-14T07:18:08;11.35;;;8.45;;
12407;SDS011;6268;48.188;17.134;2023-03-14T07:20:37;9.82;;;8.82;;
12407;SDS011;6268;48.188;17.134;2023-03-14T07:23:06;18.95;;;8.93;;
12407;SDS011;6268;48.188;17.134;2023-03-14T07:25:36;12.93;;;9.00;;
12407;SDS011;6268;48.188;17.134;2023-03-14T07:28:05;12.55;;;9.35;;
12407;SDS011;6268;48.188;17.134;2023-03-14T07:30:34;13.88;;;10.27;;
12407;SDS011;6268;48.188;17.134;2023-03-14T07:33:03;12.00;;;9.80;;
12407;SDS011;6268;48.188;17.134;2023-03-14T07:35:32;11.73;;;9.05;;
12407;SDS011;6268;48.188;17.134;2023-03-14T07:38:00;18.25;;;9.90;;
12407;SDS011;6268;48.188;17.134;2023-03-14T07:40:29;13.98;;;9.95;;
12407;SDS011;6268;48.188;17.134;2023-03-14T07:42:59;15.82;;;9.07;;
12407;SDS011;6268;48.188;17.134;2023-03-14T07:45:28;14.30;;;9.75;;
12407;SDS011;6268;48.188;17.134;2023-03-14T07:47:57;10.65;;;8.88;;
12407;SDS011;6268;48.188;17.134;2023-03-14T07:50:26;17.52;;;8.88;;
12407;SDS011;6268;48.188;17.134;2023-03-14T07:52:55;12.73;;;7.93;;
12407;SDS011;6268;48.188;17.134;2023-03-14T07:55:24;11.65;;;8.52;;
12407;SDS011;6268;48.188;17.134;2023-03-14T07:57:53;8.70;;;7.28;;
12407;SDS011;6268;48.188;17.134;2023-03-14T08:00:23;12.38;;;6.47;;
12407;SDS011;6268;48.188;17.134;2023-03-14T08:02:52;11.18;;;6.25;;
12407;SDS011;6268;48.188;17.134;2023-03-14T08:05:21;8.07;;;6.95;;
12407;SDS011;6268;48.188;17.134;2023-03-14T08:07:50;13.18;;;10.45;;
12407;SDS011;6268;48.188;17.134;2023-03-14T08:10:19;11.55;;;10.35;;
12407;SDS011;6268;48.188;17.134;2023-03-14T08:12:50;13.13;;;9.70;;
12407;SDS011;6268;48.188;17.134;2023-03-14T08:15:24;14.40;;;10.90;;
12407;SDS011;6268;48.188;17.134;2023-03-14T08:17:54;22.65;;;11.48;;
12407;SDS011;6268;48.188;17.134;2023-03-14T08:20:23;12.75;;;8.40;;
12407;SDS011;6268;48.188;17.134;2023-03-14T08:22:55;11.95;;;8.45;;
12407;SDS011;6268;48.188;17.134;2023-03-14T08:25:25;15.65;;;8.45;;
12407;SDS011;6268;48.188;17.134;2023-03-14T08:27:55;16.63;;;9.77;;
12407;SDS011;6268;48.188;17.134;2023-03-14T08:30:25;18.17;;;10.05;;
12407;SDS011;6268;48.188;17.134;2023-03-14T08:32:55;11.27;;;8.93;;
12407;SDS011;6268;48.188;17.134;2023-03-14T08:35:24;11.68;;;9.60;;
12407;SDS011;6268;48.188;17.134;2023-03-14T08:37:55;15.40;;;9.90;;
12407;SDS011;6268;48.188;17.134;2023-03-14T08:40:23;13.30;;;10.18;;
12407;SDS011;6268;48.188;17.134;2023-03-14T08:42:52;9.85;;;8.93;;
12407;SDS011;6268;48.188;17.134;2023-03-14T08:45:21;10.88;;;9.20;;
12407;SDS011;6268;48.188;17.134;2023-03-14T08:47:53;15.68;;;8.98;;
12407;SDS011;6268;48.188;17.134;2023-03-14T08:50:21;15.68;;;10.27;;
12407;SDS011;6268;48.188;17.134;2023-03-14T08:52:50;15.48;;;11.63;;
12407;SDS011;6268;48.188;17.134;2023-03-14T08:55:19;22.17;;;12.45;;
12407;SDS011;6268;48.188;17.134;2023-03-14T08:57:48;16.05;;;12.95;;
12407;SDS011;6268;48.188;17.134;2023-03-14T09:00:17;15.55;;;12.27;;
12407;SDS011;6268;48.188;17.134;2023-03-14T09:02:47;22.90;;;13.05;;
12407;SDS011;6268;48.188;17.134;2023-03-14T09:05:18;16.73;;;11.70;;
12407;SDS011;6268;48.188;17.134;2023-03-14T09:07:46;15.48;;;11.32;;
12407;SDS011;6268;48.188;17.134;2023-03-14T09:10:15;17.73;;;12.93;;
12407;SDS011;6268;48.188;17.134;2023-03-14T09:12:44;19.67;;;12.40;;
12407;SDS011;6268;48.188;17.134;2023-03-14T09:15:13;19.58;;;13.90;;
12407;SDS011;6268;48.188;17.134;2023-03-14T09:17:42;19.92;;;14.35;;
12407;SDS011;6268;48.188;17.134;2023-03-14T09:20:11;18.70;;;15.05;;
12407;SDS011;6268;48.188;17.134;2023-03-14T09:22:42;20.05;;;16.48;;
12407;SDS011;6268;48.188;17.134;2023-03-14T09:25:11;20.23;;;17.85;;
12407;SDS011;6268;48.188;17.134;2023-03-14T09:27:39;23.08;;;17.60;;
12407;SDS011;6268;48.188;17.134;2023-03-14T09:30:09;18.63;;;14.63;;
12407;SDS011;6268;48.188;17.134;2023-03-14T09:32:38;22.25;;;15.48;;
12407;SDS011;6268;48.188;17.134;2023-03-14T09:35:08;22.45;;;16.10;;
12407;SDS011;6268;48.188;17.134;2023-03-14T09:37:37;75.60;;;38.13;;
12407;SDS011;6268;48.188;17.134;2023-03-14T09:40:09;63.17;;;36.33;;
12407;SDS011;6268;48.188;17.134;2023-03-14T09:42:41;39.70;;;27.73;;
12407;SDS011;6268;48.188;17.134;2023-03-14T09:45:11;32.78;;;24.98;;
12407;SDS011;6268;48.188;17.134;2023-03-14T09:47:53;21.08;;;17.55;;
12407;SDS011;6268;48.188;17.134;2023-03-14T09:50:25;19.52;;;13.70;;
12407;SDS011;6268;48.188;17.134;2023-03-14T09:53:02;19.30;;;14.00;;
12407;SDS011;6268;48.188;17.134;2023-03-14T09:55:38;17.88;;;14.50;;
12407;SDS011;6268;48.188;17.134;2023-03-14T09:58:09;17.77;;;13.35;;
12407;SDS011;6268;48.188;17.134;2023-03-14T10:00:42;16.08;;;14.10;;
12407;SDS011;6268;48.188;17.134;2023-03-14T10:03:21;13.88;;;9.88;;
12407;SDS011;6268;48.188;17.134;2023-03-14T10:05:57;12.27;;;9.55;;
12407;SDS011;6268;48.188;17.134;2023-03-14T10:08:26;13.20;;;10.55;;
12407;SDS011;6268;48.188;17.134;2023-03-14T10:10:56;13.30;;;8.48;;
12407;SDS011;6268;48.188;17.134;2023-03-14T10:13:26;14.05;;;8.57;;
12407;SDS011;6268;48.188;17.134;2023-03-14T10:15:58;7.13;;;6.43;;
12407;SDS011;6268;48.188;17.134;2023-03-14T10:18:32;6.40;;;5.80;;
12407;SDS011;6268;48.188;17.134;2023-03-14T10:21:02;6.32;;;5.72;;
12407;SDS011;6268;48.188;17.134;2023-03-14T10:23:44;7.93;;;6.40;;
12407;SDS011;6268;48.188;17.134;2023-03-14T10:26:17;7.78;;;5.90;;
12407;SDS011;6268;48.188;17.134;2023-03-14T10:28:52;9.88;;;6.22;;
12407;SDS011;6268;48.188;17.134;2023-03-14T10:31:32;7.57;;;5.90;;
12407;SDS011;6268;48.188;17.134;2023-03-14T10:34:20;11.10;;;5.82;;
12407;SDS011;6268;48.188;17.134;2023-03-14T10:36:53;9.43;;;6.97;;
12407;SDS011;6268;48.188;17.134;2023-03-14T10:39:26;7.25;;;6.20;;
12407;SDS011;6268;48.188;17.134;2023-03-14T10:42:13;9.98;;;8.05;;
12407;SDS011;6268;48.188;17.134;2023-03-14T10:44:49;11.05;;;8.10;;
12407;SDS011;6268;48.188;17.134;2023-03-14T10:47:25;11.20;;;8.52;;
12407;SDS011;6268;48.188;17.134;2023-03-14T10:49:56;12.40;;;9.48;;
12407;SDS011;6268;48.188;17.134;2023-03-14T10:52:46;11.27;;;9.38;;
12407;SDS011;6268;48.188;17.134;2023-03-14T10:55:28;9.73;;;8.02;;
12407;SDS011;6268;48.188;17.134;2023-03-14T10:58:23;15.27;;;11.32;;
12407;SDS011;6268;48.188;17.134;2023-03-14T11:00:57;17.02;;;12.60;;
12407;SDS011;6268;48.188;17.134;2023-03-14T11:03:36;13.13;;;8.48;;
12407;SDS011;6268;48.188;17.134;2023-03-14T11:06:17;10.35;;;7.80;;
12407;SDS011;6268;48.188;17.134;2023-03-14T11:08:53;11.90;;;8.30;;
12407;SDS011;6268;48.188;17.134;2023-03-14T11:11:32;12.18;;;8.68;;
12407;SDS011;6268;48.188;17.134;2023-03-14T11:14:05;9.35;;;8.45;;
12407;SDS011;6268;48.188;17.134;2023-03-14T11:16:48;10.27;;;8.38;;
12407;SDS011;6268;48.188;17.134;2023-03-14T11:19:29;15.05;;;7.80;;
12407;SDS011;6268;48.188;17.134;2023-03-14T11:22:20;13.45;;;7.82;;
12407;SDS011;6268;48.188;17.134;2023-03-14T11:25:03;10.35;;;7.15;;
12407;SDS011;6268;48.188;17.134;2023-03-14T11:27:47;8.23;;;6.72;;
12407;SDS011;6268;48.188;17.134;2023-03-14T11:30:32;8.93;;;6.68;;
12407;SDS011;6268;48.188;17.134;2023-03-14T11:33:13;9.68;;;7.20;;
12407;SDS011;6268;48.188;17.134;2023-03-14T11:35:45;8.50;;;6.93;;
12407;SDS011;6268;48.188;17.134;2023-03-14T11:38:27;11.52;;;7.32;;
12407;SDS011;6268;48.188;17.134;2023-03-14T11:41:02;10.20;;;6.88;;
12407;SDS011;6268;48.188;17.134;2023-03-14T11:43:37;13.10;;;8.90;;
12407;SDS011;6268;48.188;17.134;2023-03-14T11:46:11;12.55;;;8.10;;
12407;SDS011;6268;48.188;17.134;2023-03-14T11:48:50;14.38;;;7.75;;
12407;SDS011;6268;48.188;17.134;2023-03-14T11:51:29;15.93;;;10.15;;
12407;SDS011;6268;48.188;17.134;2023-03-14T11:54:04;13.52;;;8.95;;
12407;SDS011;6268;48.188;17.134;2023-03-14T11:56:44;14.30;;;7.55;;
12407;SDS011;6268;48.188;17.134;2023-03-14T11:59:21;9.57;;;7.75;;
12407;SDS011;6268;48.188;17.134;2023-03-14T12:01:59;13.18;;;8.20;;
12407;SDS011;6268;48.188;17.134;2023-03-14T12:04:40;12.05;;;7.55;;
12407;SDS011;6268;48.188;17.134;2023-03-14T12:07:23;10.55;;;8.60;;
12407;SDS011;6268;48.188;17.134;2023-03-14T12:10:03;9.02;;;7.50;;
12407;SDS011;6268;48.188;17.134;2023-03-14T12:12:33;6.07;;;3.83;;
12407;SDS011;6268;48.188;17.134;2023-03-14T12:15:04;2.40;;;2.03;;
12407;SDS011;6268;48.188;17.134;2023-03-14T12:17:52;1.60;;;1.50;;
12407;SDS011;6268;48.188;17.134;2023-03-14T12:20:23;3.38;;;1.70;;
12407;SDS011;6268;48.188;17.134;2023-03-14T12:22:54;1.63;;;1.52;;
12407;SDS011;6268;48.188;17.134;2023-03-14T12:25:29;2.53;;;1.70;;
12407;SDS011;6268;48.188;17.134;2023-03-14T12:28:05;3.17;;;1.75;;
12407;SDS011;6268;48.188;17.134;2023-03-14T12:30:46;1.60;;;1.50;;
12407;SDS011;6268;48.188;17.134;2023-03-14T12:33:21;4.57;;;2.30;;
12407;SDS011;6268;48.188;17.134;2023-03-14T12:35:57;3.10;;;2.10;;
12407;SDS011;6268;48.188;17.134;2023-03-14T12:39:20;3.72;;;2.33;;
12407;SDS011;6268;48.188;17.134;2023-03-14T12:42:04;2.95;;;2.20;;
12407;SDS011;6268;48.188;17.134;2023-03-14T12:44:39;2.42;;;2.22;;
12407;SDS011;6268;48.188;17.134;2023-03-14T12:50:36;2.53;;;2.33;;
12407;SDS011;6268;48.188;17.134;2023-03-14T12:56:51;2.38;;;2.17;;
12407;SDS011;6268;48.188;17.134;2023-03-14T12:59:33;2.45;;;2.25;;
12407;SDS011;6268;48.188;17.134;2023-03-14T13:02:14;2.65;;;2.13;;
12407;SDS011;6268;48.188;17.134;2023-03-14T13:04:53;2.45;;;1.63;;
12407;SDS011;6268;48.188;17.134;2023-03-14T13:07:39;2.13;;;1.50;;
12407;SDS011;6268;48.188;17.134;2023-03-14T13:10:42;3.20;;;1.20;;
12407;SDS011;6268;48.188;17.134;2023-03-14T13:13:19;1.25;;;1.10;;
12407;SDS011;6268;48.188;17.134;2023-03-14T13:15:53;1.02;;;1.02;;
12407;SDS011;6268;48.188;17.134;2023-03-14T13:18:27;0.98;;;0.90;;
12407;SDS011;6268;48.188;17.134;2023-03-14T13:21:03;3.10;;;1.13;;
12407;SDS011;6268;48.188;17.134;2023-03-14T13:23:40;2.28;;;1.10;;
12407;SDS011;6268;48.188;17.134;2023-03-14T13:26:23;1.55;;;0.90;;
12407;SDS011;6268;48.188;17.134;2023-03-14T13:29:07;0.73;;;0.73;;
12407;SDS011;6268;48.188;17.134;2023-03-14T13:31:43;0.93;;;0.73;;
12407;SDS011;6268;48.188;17.134;2023-03-14T13:34:14;1.55;;;0.70;;
12407;SDS011;6268;48.188;17.134;2023-03-14T13:36:44;0.80;;;0.70;;
12407;SDS011;6268;48.188;17.134;2023-03-14T13:39:18;0.93;;;0.70;;
12407;SDS011;6268;48.188;17.134;2023-03-14T13:41:51;2.45;;;0.73;;
12407;SDS011;6268;48.188;17.134;2023-03-14T13:44:23;0.68;;;0.68;;
12407;SDS011;6268;48.188;17.134;2023-03-14T13:46:57;0.70;;;0.70;;
12407;SDS011;6268;48.188;17.134;2023-03-14T13:49:28;2.08;;;0.85;;
12407;SDS011;6268;48.188;17.134;2023-03-14T13:52:02;2.05;;;0.68;;
12407;SDS011;6268;48.188;17.134;2023-03-14T13:54:53;0.68;;;0.63;;
12407;SDS011;6268;48.188;17.134;2023-03-14T13:57:23;0.68;;;0.68;;
12407;SDS011;6268;48.188;17.134;2023-03-14T13:59:59;1.67;;;0.90;;
12407;SDS011;6268;48.188;17.134;2023-03-14T14:02:34;1.55;;;0.77;;
12407;SDS011;6268;48.188;17.134;2023-03-14T14:05:09;0.90;;;0.90;;
12407;SDS011;6268;48.188;17.134;2023-03-14T14:07:39;0.57;;;0.57;;
12407;SDS011;6268;48.188;17.134;2023-03-14T14:10:13;0.82;;;0.82;;
12407;SDS011;6268;48.188;17.134;2023-03-14T14:12:42;1.10;;;0.80;;
12407;SDS011;6268;48.188;17.134;2023-03-14T14:15:19;0.95;;;0.90;;
12407;SDS011;6268;48.188;17.134;2023-03-14T14:17:53;1.08;;;0.98;;
12407;SDS011;6268;48.188;17.134;2023-03-14T14:20:30;0.82;;;0.75;;
12407;SDS011;6268;48.188;17.134;2023-03-14T14:23:05;0.70;;;0.70;;
12407;SDS011;6268;48.188;17.134;2023-03-14T14:25:41;0.73;;;0.63;;
12407;SDS011;6268;48.188;17.134;2023-03-14T14:28:14;0.85;;;0.85;;
12407;SDS011;6268;48.188;17.134;2023-03-14T14:30:58;2.33;;;0.98;;
12407;SDS011;6268;48.188;17.134;2023-03-14T14:33:40;1.42;;;0.90;;
12407;SDS011;6268;48.188;17.134;2023-03-14T14:36:14;1.00;;;0.90;;
12407;SDS011;6268;48.188;17.134;2023-03-14T14:38:50;2.78;;;1.30;;
12407;SDS011;6268;48.188;17.134;2023-03-14T14:41:23;1.38;;;1.27;;
12407;SDS011;6268;48.188;17.134;2023-03-14T14:43:58;0.63;;;0.60;;
12407;SDS011;6268;48.188;17.134;2023-03-14T14:46:28;0.75;;;0.70;;
12407;SDS011;6268;48.188;17.134;2023-03-14T14:49:05;1.38;;;0.75;;
12407;SDS011;6268;48.188;17.134;2023-03-14T14:51:41;0.75;;;0.60;;
12407;SDS011;6268;48.188;17.134;2023-03-14T14:54:17;1.77;;;0.60;;
12407;SDS011;6268;48.188;17.134;2023-03-14T14:57:03;1.25;;;0.75;;
12407;SDS011;6268;48.188;17.134;2023-03-14T14:59:41;1.10;;;0.70;;
12407;SDS011;6268;48.188;17.134;2023-03-14T15:02:20;1.95;;;1.30;;
12407;SDS011;6268;48.188;17.134;2023-03-14T15:05:00;0.80;;;0.73;;
12407;SDS011;6268;48.188;17.134;2023-03-14T15:07:29;0.68;;;0.63;;
12407;SDS011;6268;48.188;17.134;2023-03-14T15:09:58;1.13;;;0.60;;
12407;SDS011;6268;48.188;17.134;2023-03-14T15:12:28;2.45;;;0.77;;
12407;SDS011;6268;48.188;17.134;2023-03-14T15:14:57;1.15;;;0.77;;
12407;SDS011;6268;48.188;17.134;2023-03-14T15:17:26;1.52;;;0.93;;
12407;SDS011;6268;48.188;17.134;2023-03-14T15:20:11;0.55;;;0.52;;
12407;SDS011;6268;48.188;17.134;2023-03-14T15:22:43;0.30;;;0.30;;
12407;SDS011;6268;48.188;17.134;2023-03-14T15:25:12;1.20;;;0.60;;
12407;SDS011;6268;48.188;17.134;2023-03-14T15:28:01;1.05;;;0.40;;
12407;SDS011;6268;48.188;17.134;2023-03-14T15:30:30;0.40;;;0.40;;
12407;SDS011;6268;48.188;17.134;2023-03-14T15:32:59;1.15;;;0.50;;
12407;SDS011;6268;48.188;17.134;2023-03-14T15:35:29;0.65;;;0.30;;
12407;SDS011;6268;48.188;17.134;2023-03-14T15:37:58;0.38;;;0.38;;